sensor_id;sensor_type;location;lat;lon;timestamp;temperature;humidity
2056;DHT22;1033;52.560;13.374;2022-11-15T00:02:13;6.00;99.90
2056;DHT22;1033;52.560;13.374;2022-11-15T00:05:00;6.00;99.90
2056;DHT22;1033;52.560;13.374;2022-11-15T00:07:48;5.90;99.90
2056;DHT22;1033;52.560;13.374;2022-11-15T00:10:40;5.90;99.90
2056;DHT22;1033;52.560;13.374;2022-11-15T00:13:28;5.90;99.90
2056;DHT22;1033;52.560;13.374;2022-11-15T00:16:16;5.80;99.90
2056;DHT22;1033;52.560;13.374;2022-11-15T00:19:05;5.80;99.90
2056;DHT22;1033;52.560;13.374;2022-11-15T00:21:53;5.90;99.90
2056;DHT22;1033;52.560;13.374;2022-11-15T00:24:40;5.90;99.90
2056;DHT22;1033;52.560;13.374;2022-11-15T00:27:28;5.80;99.90
2056;DHT22;1033;52.560;13.374;2022-11-15T00:30:16;5.90;99.90
2056;DHT22;1033;52.560;13.374;2022-11-15T00:33:04;6.00;99.90
2056;DHT22;1033;52.560;13.374;2022-11-15T00:35:59;5.90;99.90
2056;DHT22;1033;52.560;13.374;2022-11-15T00:38:48;5.90;99.90
2056;DHT22;1033;52.560;13.374;2022-11-15T00:41:35;5.90;99.90
2056;DHT22;1033;52.560;13.374;2022-11-15T00:44:23;5.80;99.90
2056;DHT22;1033;52.560;13.374;2022-11-15T00:47:11;5.80;99.90
2056;DHT22;1033;52.560;13.374;2022-11-15T00:49:58;5.80;99.90
2056;DHT22;1033;52.560;13.374;2022-11-15T00:52:47;5.70;99.90
2056;DHT22;1033;52.560;13.374;2022-11-15T00:55:41;5.60;99.90
2056;DHT22;1033;52.560;13.374;2022-11-15T00:58:30;5.60;99.90
2056;DHT22;1033;52.560;13.374;2022-11-15T01:01:18;5.60;99.90
2056;DHT22;1033;52.560;13.374;2022-11-15T01:04:06;5.60;99.90
2056;DHT22;1033;52.560;13.374;2022-11-15T01:06:54;5.60;99.90
2056;DHT22;1033;52.560;13.374;2022-11-15T01:09:46;5.70;99.90
2056;DHT22;1033;52.560;13.374;2022-11-15T01:12:34;5.70;99.90
2056;DHT22;1033;52.560;13.374;2022-11-15T01:15:22;5.60;99.90
2056;DHT22;1033;52.560;13.374;2022-11-15T01:18:10;5.60;99.90
2056;DHT22;1033;52.560;13.374;2022-11-15T01:20:58;5.60;99.90
2056;DHT22;1033;52.560;13.374;2022-11-15T01:23:46;5.50;99.90
2056;DHT22;1033;52.560;13.374;2022-11-15T01:26:35;5.50;99.90
2056;DHT22;1033;52.560;13.374;2022-11-15T01:29:22;5.60;99.90
2056;DHT22;1033;52.560;13.374;2022-11-15T01:32:10;5.60;99.90
2056;DHT22;1033;52.560;13.374;2022-11-15T01:34:58;5.60;99.90
2056;DHT22;1033;52.560;13.374;2022-11-15T01:37:45;5.60;99.90
2056;DHT22;1033;52.560;13.374;2022-11-15T01:40:33;5.60;99.90
2056;DHT22;1033;52.560;13.374;2022-11-15T01:43:24;5.50;99.90
2056;DHT22;1033;52.560;13.374;2022-11-15T01:46:27;5.50;99.90
2056;DHT22;1033;52.560;13.374;2022-11-15T01:49:20;5.50;99.90
2056;DHT22;1033;52.560;13.374;2022-11-15T01:52:12;5.60;99.90
2056;DHT22;1033;52.560;13.374;2022-11-15T01:55:07;5.60;99.90
2056;DHT22;1033;52.560;13.374;2022-11-15T01:58:00;5.50;99.90
2056;DHT22;1033;52.560;13.374;2022-11-15T02:00:52;5.50;99.90
2056;DHT22;1033;52.560;13.374;2022-11-15T02:03:43;5.40;99.90
2056;DHT22;1033;52.560;13.374;2022-11-15T02:06:39;5.50;99.90
2056;DHT22;1033;52.560;13.374;2022-11-15T02:09:27;5.50;99.90
2056;DHT22;1033;52.560;13.374;2022-11-15T02:12:19;5.60;99.90
2056;DHT22;1033;52.560;13.374;2022-11-15T02:15:09;5.60;99.90
2056;DHT22;1033;52.560;13.374;2022-11-15T02:18:07;5.60;99.90
2056;DHT22;1033;52.560;13.374;2022-11-15T02:21:12;5.60;99.90
2056;DHT22;1033;52.560;13.374;2022-11-15T02:24:35;5.50;99.90
2056;DHT22;1033;52.560;13.374;2022-11-15T02:28:10;5.50;99.90
2056;DHT22;1033;52.560;13.374;2022-11-15T02:31:24;5.60;99.90
2056;DHT22;1033;52.560;13.374;2022-11-15T02:34:24;5.50;99.90
2056;DHT22;1033;52.560;13.374;2022-11-15T02:37:25;5.50;99.90
2056;DHT22;1033;52.560;13.374;2022-11-15T02:40:27;5.50;99.90
2056;DHT22;1033;52.560;13.374;2022-11-15T02:43:27;5.50;99.90
2056;DHT22;1033;52.560;13.374;2022-11-15T02:46:40;5.60;99.90
2056;DHT22;1033;52.560;13.374;2022-11-15T02:49:49;5.60;99.90
2056;DHT22;1033;52.560;13.374;2022-11-15T02:52:40;5.60;99.90
2056;DHT22;1033;52.560;13.374;2022-11-15T02:55:37;5.60;99.90
2056;DHT22;1033;52.560;13.374;2022-11-15T02:58:43;5.50;99.90
2056;DHT22;1033;52.560;13.374;2022-11-15T03:01:55;5.60;99.90
2056;DHT22;1033;52.560;13.374;2022-11-15T03:04:58;5.60;99.90
2056;DHT22;1033;52.560;13.374;2022-11-15T03:07:56;5.60;99.90
2056;DHT22;1033;52.560;13.374;2022-11-15T03:11:01;5.60;99.90
2056;DHT22;1033;52.560;13.374;2022-11-15T03:13:57;5.70;99.90
2056;DHT22;1033;52.560;13.374;2022-11-15T03:16:54;5.60;99.90
2056;DHT22;1033;52.560;13.374;2022-11-15T03:19:50;5.60;99.90
2056;DHT22;1033;52.560;13.374;2022-11-15T03:22:43;5.60;99.90
2056;DHT22;1033;52.560;13.374;2022-11-15T03:25:34;5.50;99.90
2056;DHT22;1033;52.560;13.374;2022-11-15T03:28:34;5.50;99.90
2056;DHT22;1033;52.560;13.374;2022-11-15T03:31:33;5.40;99.90
2056;DHT22;1033;52.560;13.374;2022-11-15T03:34:40;5.50;99.90
2056;DHT22;1033;52.560;13.374;2022-11-15T03:37:34;5.50;99.90
2056;DHT22;1033;52.560;13.374;2022-11-15T03:40:27;5.40;99.90
2056;DHT22;1033;52.560;13.374;2022-11-15T03:43:28;5.40;99.90
2056;DHT22;1033;52.560;13.374;2022-11-15T03:46:27;5.50;99.90
2056;DHT22;1033;52.560;13.374;2022-11-15T03:49:25;5.50;99.90
2056;DHT22;1033;52.560;13.374;2022-11-15T03:52:19;5.60;99.90
2056;DHT22;1033;52.560;13.374;2022-11-15T03:55:11;5.60;99.90
2056;DHT22;1033;52.560;13.374;2022-11-15T03:58:02;5.50;99.90
2056;DHT22;1033;52.560;13.374;2022-11-15T04:00:50;5.50;99.90
2056;DHT22;1033;52.560;13.374;2022-11-15T04:03:38;5.50;99.90
2056;DHT22;1033;52.560;13.374;2022-11-15T04:06:27;5.60;99.90
2056;DHT22;1033;52.560;13.374;2022-11-15T04:09:16;5.60;99.90
2056;DHT22;1033;52.560;13.374;2022-11-15T04:12:04;5.60;99.90
2056;DHT22;1033;52.560;13.374;2022-11-15T04:14:51;5.60;99.90
2056;DHT22;1033;52.560;13.374;2022-11-15T04:17:50;5.60;99.90
2056;DHT22;1033;52.560;13.374;2022-11-15T04:20:40;5.70;99.90
2056;DHT22;1033;52.560;13.374;2022-11-15T04:23:45;5.60;99.90
2056;DHT22;1033;52.560;13.374;2022-11-15T04:26:46;5.70;99.90
2056;DHT22;1033;52.560;13.374;2022-11-15T04:29:34;5.70;99.90
2056;DHT22;1033;52.560;13.374;2022-11-15T04:32:22;5.80;99.90
2056;DHT22;1033;52.560;13.374;2022-11-15T04:35:11;5.70;99.90
2056;DHT22;1033;52.560;13.374;2022-11-15T04:37:58;5.70;99.90
2056;DHT22;1033;52.560;13.374;2022-11-15T04:40:46;5.70;99.90
2056;DHT22;1033;52.560;13.374;2022-11-15T04:43:34;5.70;99.90
2056;DHT22;1033;52.560;13.374;2022-11-15T04:46:21;5.70;99.90
2056;DHT22;1033;52.560;13.374;2022-11-15T04:49:09;5.60;99.90
2056;DHT22;1033;52.560;13.374;2022-11-15T04:51:58;5.70;99.90
2056;DHT22;1033;52.560;13.374;2022-11-15T04:54:46;5.70;99.90
2056;DHT22;1033;52.560;13.374;2022-11-15T04:57:33;5.70;99.90
2056;DHT22;1033;52.560;13.374;2022-11-15T05:00:21;5.80;99.90
2056;DHT22;1033;52.560;13.374;2022-11-15T05:03:09;5.70;99.90
2056;DHT22;1033;52.560;13.374;2022-11-15T05:06:15;5.70;99.90
2056;DHT22;1033;52.560;13.374;2022-11-15T05:09:04;5.80;99.90
2056;DHT22;1033;52.560;13.374;2022-11-15T05:11:51;5.80;99.90
2056;DHT22;1033;52.560;13.374;2022-11-15T05:14:39;5.80;99.90
2056;DHT22;1033;52.560;13.374;2022-11-15T05:17:26;5.80;99.90
2056;DHT22;1033;52.560;13.374;2022-11-15T05:20:13;5.80;99.90
2056;DHT22;1033;52.560;13.374;2022-11-15T05:23:01;5.80;99.90
2056;DHT22;1033;52.560;13.374;2022-11-15T05:25:50;5.70;99.90
2056;DHT22;1033;52.560;13.374;2022-11-15T05:28:37;5.70;99.90
2056;DHT22;1033;52.560;13.374;2022-11-15T05:31:25;5.70;99.90
2056;DHT22;1033;52.560;13.374;2022-11-15T05:34:13;5.80;99.90
2056;DHT22;1033;52.560;13.374;2022-11-15T05:37:01;5.80;99.90
2056;DHT22;1033;52.560;13.374;2022-11-15T05:39:48;5.80;99.90
2056;DHT22;1033;52.560;13.374;2022-11-15T05:42:36;5.80;99.90
2056;DHT22;1033;52.560;13.374;2022-11-15T05:45:24;5.80;99.90
2056;DHT22;1033;52.560;13.374;2022-11-15T05:48:12;5.70;99.90
2056;DHT22;1033;52.560;13.374;2022-11-15T05:51:02;5.60;99.90
2056;DHT22;1033;52.560;13.374;2022-11-15T05:53:52;5.60;99.90
2056;DHT22;1033;52.560;13.374;2022-11-15T05:56:43;5.50;99.90
2056;DHT22;1033;52.560;13.374;2022-11-15T05:59:33;5.60;99.90
2056;DHT22;1033;52.560;13.374;2022-11-15T06:02:22;5.60;99.90
2056;DHT22;1033;52.560;13.374;2022-11-15T06:05:09;5.60;99.90
2056;DHT22;1033;52.560;13.374;2022-11-15T06:07:57;5.70;99.90
2056;DHT22;1033;52.560;13.374;2022-11-15T06:10:45;5.60;99.90
2056;DHT22;1033;52.560;13.374;2022-11-15T06:13:33;5.70;99.90
2056;DHT22;1033;52.560;13.374;2022-11-15T06:16:22;5.70;99.90
2056;DHT22;1033;52.560;13.374;2022-11-15T06:19:10;5.70;99.90
2056;DHT22;1033;52.560;13.374;2022-11-15T06:21:57;5.70;99.90
2056;DHT22;1033;52.560;13.374;2022-11-15T06:24:45;5.70;99.90
2056;DHT22;1033;52.560;13.374;2022-11-15T06:27:32;5.70;99.90
2056;DHT22;1033;52.560;13.374;2022-11-15T06:30:20;5.70;99.90
2056;DHT22;1033;52.560;13.374;2022-11-15T06:33:09;5.60;99.90
2056;DHT22;1033;52.560;13.374;2022-11-15T06:36:00;5.60;99.90
2056;DHT22;1033;52.560;13.374;2022-11-15T06:38:49;5.70;99.90
2056;DHT22;1033;52.560;13.374;2022-11-15T06:41:36;5.80;99.90
2056;DHT22;1033;52.560;13.374;2022-11-15T06:44:24;5.80;99.90
2056;DHT22;1033;52.560;13.374;2022-11-15T06:47:11;5.80;99.90
2056;DHT22;1033;52.560;13.374;2022-11-15T06:50:00;5.80;99.90
2056;DHT22;1033;52.560;13.374;2022-11-15T06:52:48;5.80;99.90
2056;DHT22;1033;52.560;13.374;2022-11-15T06:55:35;5.90;99.90
2056;DHT22;1033;52.560;13.374;2022-11-15T06:58:22;5.90;99.90
2056;DHT22;1033;52.560;13.374;2022-11-15T07:01:13;5.90;99.90
2056;DHT22;1033;52.560;13.374;2022-11-15T07:04:01;5.90;99.90
2056;DHT22;1033;52.560;13.374;2022-11-15T07:06:49;5.90;99.90
2056;DHT22;1033;52.560;13.374;2022-11-15T07:09:37;5.90;99.90
2056;DHT22;1033;52.560;13.374;2022-11-15T07:12:24;5.90;99.90
2056;DHT22;1033;52.560;13.374;2022-11-15T07:15:11;6.00;99.90
2056;DHT22;1033;52.560;13.374;2022-11-15T07:18:00;6.00;99.90
2056;DHT22;1033;52.560;13.374;2022-11-15T07:20:48;6.20;99.90
2056;DHT22;1033;52.560;13.374;2022-11-15T07:23:38;6.30;99.90
2056;DHT22;1033;52.560;13.374;2022-11-15T07:26:26;6.40;99.90
2056;DHT22;1033;52.560;13.374;2022-11-15T07:29:13;6.40;99.90
2056;DHT22;1033;52.560;13.374;2022-11-15T07:32:04;6.50;99.90
2056;DHT22;1033;52.560;13.374;2022-11-15T07:34:52;6.50;99.90
2056;DHT22;1033;52.560;13.374;2022-11-15T07:37:40;6.60;99.90
2056;DHT22;1033;52.560;13.374;2022-11-15T07:40:31;6.70;99.90
2056;DHT22;1033;52.560;13.374;2022-11-15T07:43:21;6.70;99.90
2056;DHT22;1033;52.560;13.374;2022-11-15T07:46:47;6.80;99.90
2056;DHT22;1033;52.560;13.374;2022-11-15T07:49:51;6.90;99.90
2056;DHT22;1033;52.560;13.374;2022-11-15T07:52:43;7.00;99.90
2056;DHT22;1033;52.560;13.374;2022-11-15T07:55:35;7.10;99.90
2056;DHT22;1033;52.560;13.374;2022-11-15T07:58:25;7.20;99.90
2056;DHT22;1033;52.560;13.374;2022-11-15T15:00:02;7.30;99.90
2056;DHT22;1033;52.560;13.374;2022-11-15T15:02:42;11.70;99.90
2056;DHT22;1033;52.560;13.374;2022-11-15T15:05:15;11.60;99.90
2056;DHT22;1033;52.560;13.374;2022-11-15T15:07:45;11.50;99.90
2056;DHT22;1033;52.560;13.374;2022-11-15T15:10:16;11.40;99.90
2056;DHT22;1033;52.560;13.374;2022-11-15T15:13:15;11.30;1.00
2056;DHT22;1033;52.560;13.374;2022-11-15T15:15:46;11.30;1.00
2056;DHT22;1033;52.560;13.374;2022-11-15T15:18:16;11.20;1.00
2056;DHT22;1033;52.560;13.374;2022-11-15T15:20:54;11.10;1.00
2056;DHT22;1033;52.560;13.374;2022-11-15T15:23:27;11.10;57.90
2056;DHT22;1033;52.560;13.374;2022-11-15T15:25:58;11.10;99.90
2056;DHT22;1033;52.560;13.374;2022-11-15T15:28:30;11.00;1.00
2056;DHT22;1033;52.560;13.374;2022-11-15T15:31:01;10.90;1.00
2056;DHT22;1033;52.560;13.374;2022-11-15T15:33:30;10.80;1.00
2056;DHT22;1033;52.560;13.374;2022-11-15T15:35:59;10.70;99.90
2056;DHT22;1033;52.560;13.374;2022-11-15T15:38:28;10.70;1.00
2056;DHT22;1033;52.560;13.374;2022-11-15T15:40:58;10.60;99.90
2056;DHT22;1033;52.560;13.374;2022-11-15T15:43:31;10.50;99.90
2056;DHT22;1033;52.560;13.374;2022-11-15T15:46:04;10.60;99.90
2056;DHT22;1033;52.560;13.374;2022-11-15T15:48:35;10.60;33.40
2056;DHT22;1033;52.560;13.374;2022-11-15T15:51:06;10.50;39.60
2056;DHT22;1033;52.560;13.374;2022-11-15T15:53:46;10.40;99.90
2056;DHT22;1033;52.560;13.374;2022-11-15T15:56:15;10.20;1.00
2056;DHT22;1033;52.560;13.374;2022-11-15T15:58:46;10.20;1.00
2056;DHT22;1033;52.560;13.374;2022-11-15T16:01:15;10.10;1.00
2056;DHT22;1033;52.560;13.374;2022-11-15T16:03:44;10.10;1.00
2056;DHT22;1033;52.560;13.374;2022-11-15T16:06:38;10.10;1.00
2056;DHT22;1033;52.560;13.374;2022-11-15T16:09:13;10.00;1.00
2056;DHT22;1033;52.560;13.374;2022-11-15T16:11:45;10.00;1.00
2056;DHT22;1033;52.560;13.374;2022-11-15T16:14:15;10.00;21.30
2056;DHT22;1033;52.560;13.374;2022-11-15T16:16:44;10.00;1.00
2056;DHT22;1033;52.560;13.374;2022-11-15T16:19:13;10.00;1.00
2056;DHT22;1033;52.560;13.374;2022-11-15T16:21:42;10.00;1.00
2056;DHT22;1033;52.560;13.374;2022-11-15T16:24:11;10.10;1.00
2056;DHT22;1033;52.560;13.374;2022-11-15T16:26:40;10.00;1.00
2056;DHT22;1033;52.560;13.374;2022-11-15T16:29:10;10.00;1.00
2056;DHT22;1033;52.560;13.374;2022-11-15T16:31:41;9.90;1.00
2056;DHT22;1033;52.560;13.374;2022-11-15T16:34:10;9.90;1.00
2056;DHT22;1033;52.560;13.374;2022-11-15T16:36:39;9.90;1.00
2056;DHT22;1033;52.560;13.374;2022-11-15T16:39:11;9.80;83.60
2056;DHT22;1033;52.560;13.374;2022-11-15T16:41:44;9.70;99.30
2056;DHT22;1033;52.560;13.374;2022-11-15T16:44:13;9.70;99.90
2056;DHT22;1033;52.560;13.374;2022-11-15T16:46:44;9.60;99.90
2056;DHT22;1033;52.560;13.374;2022-11-15T16:49:19;9.50;1.00
2056;DHT22;1033;52.560;13.374;2022-11-15T16:51:49;9.40;1.00
2056;DHT22;1033;52.560;13.374;2022-11-15T16:54:19;9.40;1.00
2056;DHT22;1033;52.560;13.374;2022-11-15T16:56:48;9.30;42.30
2056;DHT22;1033;52.560;13.374;2022-11-15T16:59:17;9.30;99.90
2056;DHT22;1033;52.560;13.374;2022-11-15T17:01:48;9.30;99.90
2056;DHT22;1033;52.560;13.374;2022-11-15T17:04:20;9.30;1.00
2056;DHT22;1033;52.560;13.374;2022-11-15T17:06:50;9.20;99.90
2056;DHT22;1033;52.560;13.374;2022-11-15T17:09:20;9.10;99.90
2056;DHT22;1033;52.560;13.374;2022-11-15T17:11:51;9.00;99.90
2056;DHT22;1033;52.560;13.374;2022-11-15T17:14:21;8.90;99.90
2056;DHT22;1033;52.560;13.374;2022-11-15T17:16:51;8.90;99.90
2056;DHT22;1033;52.560;13.374;2022-11-15T17:19:21;8.80;99.90
2056;DHT22;1033;52.560;13.374;2022-11-15T17:21:50;8.70;99.90
2056;DHT22;1033;52.560;13.374;2022-11-15T17:24:22;8.60;99.90
2056;DHT22;1033;52.560;13.374;2022-11-15T17:26:51;8.50;99.90
2056;DHT22;1033;52.560;13.374;2022-11-15T17:29:20;8.50;99.90
2056;DHT22;1033;52.560;13.374;2022-11-15T17:31:50;8.40;99.90
2056;DHT22;1033;52.560;13.374;2022-11-15T17:34:19;8.30;99.90
2056;DHT22;1033;52.560;13.374;2022-11-15T17:36:48;8.20;99.90
2056;DHT22;1033;52.560;13.374;2022-11-15T17:39:17;8.20;99.90
2056;DHT22;1033;52.560;13.374;2022-11-15T17:41:47;8.10;99.90
2056;DHT22;1033;52.560;13.374;2022-11-15T17:44:16;8.10;99.90
2056;DHT22;1033;52.560;13.374;2022-11-15T17:46:45;8.10;99.90
2056;DHT22;1033;52.560;13.374;2022-11-15T17:49:16;8.00;99.90
2056;DHT22;1033;52.560;13.374;2022-11-15T17:51:45;7.90;99.90
2056;DHT22;1033;52.560;13.374;2022-11-15T17:54:16;7.80;99.90
2056;DHT22;1033;52.560;13.374;2022-11-15T17:56:45;7.80;99.90
2056;DHT22;1033;52.560;13.374;2022-11-15T17:59:14;7.70;99.90
2056;DHT22;1033;52.560;13.374;2022-11-15T18:01:48;7.70;99.90
2056;DHT22;1033;52.560;13.374;2022-11-15T18:04:20;7.60;99.90
2056;DHT22;1033;52.560;13.374;2022-11-15T18:06:54;7.60;99.90
2056;DHT22;1033;52.560;13.374;2022-11-15T18:09:23;7.60;99.90
2056;DHT22;1033;52.560;13.374;2022-11-15T18:11:52;7.50;99.90
2056;DHT22;1033;52.560;13.374;2022-11-15T18:14:21;7.50;99.90
2056;DHT22;1033;52.560;13.374;2022-11-15T18:16:52;7.50;99.90
2056;DHT22;1033;52.560;13.374;2022-11-15T18:19:22;7.40;99.90
2056;DHT22;1033;52.560;13.374;2022-11-15T18:21:52;7.40;99.90
2056;DHT22;1033;52.560;13.374;2022-11-15T18:24:25;7.30;99.90
2056;DHT22;1033;52.560;13.374;2022-11-15T18:26:56;7.30;99.90
2056;DHT22;1033;52.560;13.374;2022-11-15T18:29:27;7.30;99.90
2056;DHT22;1033;52.560;13.374;2022-11-15T18:31:56;7.20;99.90
2056;DHT22;1033;52.560;13.374;2022-11-15T18:34:28;7.20;99.90
2056;DHT22;1033;52.560;13.374;2022-11-15T18:37:00;7.10;99.90
2056;DHT22;1033;52.560;13.374;2022-11-15T18:39:30;7.10;99.90
2056;DHT22;1033;52.560;13.374;2022-11-15T18:41:59;7.10;99.90
2056;DHT22;1033;52.560;13.374;2022-11-15T18:44:28;7.00;99.90
2056;DHT22;1033;52.560;13.374;2022-11-15T18:46:58;7.00;99.90
2056;DHT22;1033;52.560;13.374;2022-11-15T18:49:28;6.90;99.90
2056;DHT22;1033;52.560;13.374;2022-11-15T18:51:57;6.80;99.90
2056;DHT22;1033;52.560;13.374;2022-11-15T18:54:27;6.70;99.90
2056;DHT22;1033;52.560;13.374;2022-11-15T18:56:58;6.70;99.90
2056;DHT22;1033;52.560;13.374;2022-11-15T18:59:28;6.60;99.90
2056;DHT22;1033;52.560;13.374;2022-11-15T19:01:57;6.60;99.90
2056;DHT22;1033;52.560;13.374;2022-11-15T19:04:28;6.50;99.90
2056;DHT22;1033;52.560;13.374;2022-11-15T19:06:57;6.50;99.90
2056;DHT22;1033;52.560;13.374;2022-11-15T19:09:26;6.50;99.90
2056;DHT22;1033;52.560;13.374;2022-11-15T19:11:59;6.40;99.90
2056;DHT22;1033;52.560;13.374;2022-11-15T19:14:28;6.40;99.90
2056;DHT22;1033;52.560;13.374;2022-11-15T19:16:57;6.40;99.90
2056;DHT22;1033;52.560;13.374;2022-11-15T19:19:28;6.30;99.90
2056;DHT22;1033;52.560;13.374;2022-11-15T19:21:57;6.30;99.90
2056;DHT22;1033;52.560;13.374;2022-11-15T19:24:28;6.30;99.90
2056;DHT22;1033;52.560;13.374;2022-11-15T19:26:57;6.30;99.90
2056;DHT22;1033;52.560;13.374;2022-11-15T19:29:26;6.30;99.90
2056;DHT22;1033;52.560;13.374;2022-11-15T19:31:55;6.30;99.90
2056;DHT22;1033;52.560;13.374;2022-11-15T20:36:02;6.10;99.90
2056;DHT22;1033;52.560;13.374;2022-11-15T21:03:11;6.10;99.90
2056;DHT22;1033;52.560;13.374;2022-11-15T21:09:00;6.10;99.90
2056;DHT22;1033;52.560;13.374;2022-11-15T21:11:46;6.10;99.90
2056;DHT22;1033;52.560;13.374;2022-11-15T21:14:32;6.10;99.90
2056;DHT22;1033;52.560;13.374;2022-11-15T21:17:01;6.10;99.90
2056;DHT22;1033;52.560;13.374;2022-11-15T21:19:33;6.20;99.90
2056;DHT22;1033;52.560;13.374;2022-11-15T21:22:04;6.20;99.90
2056;DHT22;1033;52.560;13.374;2022-11-15T21:24:35;6.20;99.90
2056;DHT22;1033;52.560;13.374;2022-11-15T21:27:04;6.20;99.90
2056;DHT22;1033;52.560;13.374;2022-11-15T21:29:33;6.20;99.90
2056;DHT22;1033;52.560;13.374;2022-11-15T21:32:06;6.20;99.90
2056;DHT22;1033;52.560;13.374;2022-11-15T21:34:38;6.20;99.90
2056;DHT22;1033;52.560;13.374;2022-11-15T21:37:07;6.20;99.90
2056;DHT22;1033;52.560;13.374;2022-11-15T21:39:37;6.20;99.90
2056;DHT22;1033;52.560;13.374;2022-11-15T21:42:06;6.10;99.90
2056;DHT22;1033;52.560;13.374;2022-11-15T21:44:35;6.10;99.90
2056;DHT22;1033;52.560;13.374;2022-11-15T21:47:04;6.10;99.90
2056;DHT22;1033;52.560;13.374;2022-11-15T21:49:33;6.10;99.90
2056;DHT22;1033;52.560;13.374;2022-11-15T21:52:03;6.10;99.90
2056;DHT22;1033;52.560;13.374;2022-11-15T21:54:32;6.00;99.90
2056;DHT22;1033;52.560;13.374;2022-11-15T21:57:01;6.10;99.90
2056;DHT22;1033;52.560;13.374;2022-11-15T21:59:30;6.10;99.90
2056;DHT22;1033;52.560;13.374;2022-11-15T22:01:59;6.10;99.90
2056;DHT22;1033;52.560;13.374;2022-11-15T22:04:42;6.10;99.90
2056;DHT22;1033;52.560;13.374;2022-11-15T22:07:13;6.00;99.90
2056;DHT22;1033;52.560;13.374;2022-11-15T22:09:41;6.10;99.90
2056;DHT22;1033;52.560;13.374;2022-11-15T22:12:10;6.10;99.90
2056;DHT22;1033;52.560;13.374;2022-11-15T22:14:39;6.20;99.90
2056;DHT22;1033;52.560;13.374;2022-11-15T22:17:11;6.20;99.90
2056;DHT22;1033;52.560;13.374;2022-11-15T22:19:40;6.10;99.90
2056;DHT22;1033;52.560;13.374;2022-11-15T22:22:20;6.20;99.90
2056;DHT22;1033;52.560;13.374;2022-11-15T22:24:49;6.10;99.90
2056;DHT22;1033;52.560;13.374;2022-11-15T22:27:18;6.10;99.90
2056;DHT22;1033;52.560;13.374;2022-11-15T22:29:47;6.10;99.90
2056;DHT22;1033;52.560;13.374;2022-11-15T22:32:16;6.10;99.90
2056;DHT22;1033;52.560;13.374;2022-11-15T22:34:45;6.10;99.90
2056;DHT22;1033;52.560;13.374;2022-11-15T22:37:14;6.10;99.90
2056;DHT22;1033;52.560;13.374;2022-11-15T22:39:49;6.10;99.90
2056;DHT22;1033;52.560;13.374;2022-11-15T22:42:18;6.10;99.90
2056;DHT22;1033;52.560;13.374;2022-11-15T22:44:50;6.20;99.90
2056;DHT22;1033;52.560;13.374;2022-11-15T22:47:19;6.20;99.90
2056;DHT22;1033;52.560;13.374;2022-11-15T22:49:49;6.20;99.90
2056;DHT22;1033;52.560;13.374;2022-11-15T22:52:19;6.10;99.90
2056;DHT22;1033;52.560;13.374;2022-11-15T22:54:49;6.10;99.90
2056;DHT22;1033;52.560;13.374;2022-11-15T22:57:18;6.10;99.90
2056;DHT22;1033;52.560;13.374;2022-11-15T22:59:48;6.10;99.90
2056;DHT22;1033;52.560;13.374;2022-11-15T23:02:17;6.10;99.90
2056;DHT22;1033;52.560;13.374;2022-11-15T23:04:47;6.00;99.90
2056;DHT22;1033;52.560;13.374;2022-11-15T23:07:16;6.00;99.90
2056;DHT22;1033;52.560;13.374;2022-11-15T23:09:45;6.00;99.90
2056;DHT22;1033;52.560;13.374;2022-11-15T23:12:20;6.00;99.90
2056;DHT22;1033;52.560;13.374;2022-11-15T23:15:07;6.00;99.90
2056;DHT22;1033;52.560;13.374;2022-11-15T23:17:37;6.00;99.90
2056;DHT22;1033;52.560;13.374;2022-11-15T23:20:09;5.90;99.90
2056;DHT22;1033;52.560;13.374;2022-11-15T23:22:58;5.90;99.90
2056;DHT22;1033;52.560;13.374;2022-11-15T23:25:27;5.90;99.90
2056;DHT22;1033;52.560;13.374;2022-11-15T23:27:58;5.90;99.90
2056;DHT22;1033;52.560;13.374;2022-11-15T23:30:32;5.80;99.90
2056;DHT22;1033;52.560;13.374;2022-11-15T23:33:19;5.80;99.90
2056;DHT22;1033;52.560;13.374;2022-11-15T23:36:06;5.80;99.90
2056;DHT22;1033;52.560;13.374;2022-11-15T23:38:36;5.80;99.90
2056;DHT22;1033;52.560;13.374;2022-11-15T23:41:05;5.70;99.90
2056;DHT22;1033;52.560;13.374;2022-11-15T23:43:36;5.70;99.90
2056;DHT22;1033;52.560;13.374;2022-11-15T23:46:05;5.70;99.90
2056;DHT22;1033;52.560;13.374;2022-11-15T23:48:34;5.70;99.90
2056;DHT22;1033;52.560;13.374;2022-11-15T23:51:04;5.60;99.90
2056;DHT22;1033;52.560;13.374;2022-11-15T23:53:34;5.70;99.90
2056;DHT22;1033;52.560;13.374;2022-11-15T23:56:05;5.70;99.90
2056;DHT22;1033;52.560;13.374;2022-11-15T23:58:38;5.60;99.90
